createdAt,value
2018-09-24T00:00:44.035Z,100732.03
2018-09-24T00:03:13.598Z,100742.44
2018-09-24T00:05:43.221Z,100745.46
2018-09-24T00:08:12.753Z,100748.91
2018-09-24T00:10:42.373Z,100759.34
2018-09-24T00:13:11.897Z,100760.69
2018-09-24T00:15:41.447Z,100765.00
2018-09-24T00:18:10.977Z,100775.45
2018-09-24T00:20:40.841Z,100775.06
2018-09-24T00:23:10.365Z,100784.97
2018-09-24T00:25:39.908Z,100785.73
2018-09-24T00:28:09.430Z,100790.37
2018-09-24T00:30:38.986Z,100783.33
2018-09-24T00:33:08.623Z,100790.17
2018-09-24T00:35:38.128Z,100793.95
2018-09-24T00:38:07.712Z,100802.17
2018-09-24T00:40:37.246Z,100804.35
2018-09-24T00:43:07.485Z,100812.66
2018-09-24T00:45:37.070Z,100818.32
2018-09-24T00:48:06.883Z,100819.58
2018-09-24T00:50:36.500Z,100819.50
2018-09-24T00:53:06.540Z,100824.58
2018-09-24T00:55:36.202Z,100836.16
2018-09-24T00:58:06.408Z,100840.39
2018-09-24T01:00:35.949Z,100839.92
2018-09-24T01:03:05.585Z,100843.28
2018-09-24T01:05:35.186Z,100852.71
2018-09-24T01:08:04.753Z,100858.24
2018-09-24T01:10:34.312Z,100865.57
2018-09-24T01:13:03.856Z,100862.89
2018-09-24T01:15:33.391Z,100872.36
2018-09-24T01:18:02.915Z,100885.77
2018-09-24T01:20:32.460Z,100880.99
2018-09-24T01:23:01.990Z,100889.16
2018-09-24T01:25:31.706Z,100896.50
2018-09-24T01:28:01.266Z,100904.70
2018-09-24T01:30:30.834Z,100912.46
2018-09-24T01:33:00.425Z,100915.48
2018-09-24T01:35:29.956Z,100922.34
2018-09-24T01:37:59.542Z,100931.02
2018-09-24T01:40:29.137Z,100933.94
2018-09-24T01:42:58.654Z,100938.16
2018-09-24T01:45:28.249Z,100937.65
2018-09-24T01:47:57.900Z,100945.03
2018-09-24T01:50:27.548Z,100948.51
2018-09-24T01:53:02.242Z,100956.30
2018-09-24T01:55:31.963Z,100966.23
2018-09-24T01:58:01.716Z,100956.63
2018-09-24T02:00:31.423Z,100965.67
2018-09-24T02:03:01.135Z,100979.84
2018-09-24T02:05:30.803Z,100979.70
2018-09-24T02:08:00.691Z,100974.09
2018-09-24T02:10:30.287Z,100986.39
2018-09-24T02:13:00.101Z,100981.20
2018-09-24T02:15:31.406Z,100983.33
2018-09-24T02:18:01.015Z,100993.67
2018-09-24T02:20:30.627Z,101000.53
2018-09-24T02:23:00.259Z,100999.55
2018-09-24T02:25:29.868Z,101001.16
2018-09-24T02:27:59.501Z,101010.94
2018-09-24T02:30:29.354Z,101020.80
2018-09-24T02:32:59.043Z,101019.05
2018-09-24T02:35:28.839Z,101028.55
2018-09-24T02:37:58.452Z,101027.14
2018-09-24T02:40:28.040Z,101034.05
2018-09-24T02:42:57.682Z,101049.63
2018-09-24T02:45:27.289Z,101041.02
2018-09-24T02:47:56.906Z,101055.23
2018-09-24T02:50:37.859Z,101052.95
2018-09-24T02:53:09.086Z,101059.85
2018-09-24T02:55:38.808Z,101061.52
2018-09-24T02:58:08.471Z,101067.90
2018-09-24T03:00:38.128Z,101063.54
2018-09-24T03:03:11.728Z,101069.05
2018-09-24T03:05:41.683Z,101076.41
2018-09-24T03:08:12.720Z,101082.00
2018-09-24T03:10:42.722Z,101086.72
2018-09-24T03:13:12.359Z,101086.62
2018-09-24T03:15:42.830Z,101093.52
2018-09-24T03:18:12.464Z,101103.39
2018-09-24T03:20:43.497Z,101089.94
2018-09-24T03:23:13.120Z,101102.50
2018-09-24T03:25:42.779Z,101096.84
2018-09-24T03:28:12.427Z,101103.75
2018-09-24T03:30:43.070Z,101103.75
2018-09-24T03:33:12.678Z,101106.34
2018-09-24T03:35:42.315Z,101099.38
2018-09-24T03:38:11.907Z,101111.41
2018-09-24T03:40:41.510Z,101112.25
2018-09-24T03:43:11.284Z,101109.64
2018-09-24T03:45:40.874Z,101112.18
2018-09-24T03:48:10.553Z,101114.36
2018-09-24T03:50:40.155Z,101128.22
2018-09-24T03:53:09.781Z,101131.64
2018-09-24T03:55:39.367Z,101140.62
2018-09-24T03:58:08.963Z,101133.60
2018-09-24T04:00:38.593Z,101134.38
2018-09-24T04:03:08.280Z,101139.92
2018-09-24T04:05:42.910Z,101140.80
2018-09-24T04:08:17.607Z,101140.80
2018-09-24T04:10:52.465Z,101136.45
2018-09-24T04:13:27.377Z,101135.62
2018-09-24T04:16:02.049Z,101149.01
2018-09-24T04:18:36.991Z,101155.44
2018-09-24T04:21:11.632Z,101165.81
2018-09-24T04:23:47.128Z,101163.20
2018-09-24T04:26:22.104Z,101159.61
2018-09-24T04:28:56.690Z,101153.42
2018-09-24T04:31:31.613Z,101167.58
2018-09-24T04:34:06.436Z,101170.53
2018-09-24T04:36:41.180Z,101171.88
2018-09-24T04:39:16.179Z,101176.24
2018-09-24T04:41:50.907Z,101175.89
2018-09-24T04:44:25.711Z,101181.96
2018-09-24T04:47:00.533Z,101181.96
2018-09-24T04:49:35.359Z,101191.45
2018-09-24T04:52:10.145Z,101184.09
2018-09-24T04:54:44.940Z,101193.16
2018-09-24T04:57:19.763Z,101190.98
2018-09-24T04:59:54.530Z,101194.52
2018-09-24T05:02:29.396Z,101202.77
2018-09-24T05:05:04.321Z,101200.53
2018-09-24T05:07:39.111Z,101200.70
2018-09-24T05:10:14.309Z,101202.12
2018-09-24T05:12:48.938Z,101194.41
2018-09-24T05:15:23.768Z,101202.02
2018-09-24T05:17:58.538Z,101212.70
2018-09-24T05:20:33.235Z,101209.03
2018-09-24T05:23:08.175Z,101213.64
2018-09-24T05:25:43.028Z,101222.07
2018-09-24T05:28:17.867Z,101216.65
2018-09-24T05:30:52.710Z,101219.86
2018-09-24T05:33:27.287Z,101228.76
2018-09-24T05:36:02.152Z,101239.54
2018-09-24T05:38:36.723Z,101220.20
2018-09-24T05:41:11.721Z,101231.92
2018-09-24T05:43:46.513Z,101231.09
2018-09-24T05:46:21.463Z,101243.80
2018-09-24T05:48:56.243Z,101239.26
2018-09-24T05:51:30.846Z,101243.98
2018-09-24T05:54:05.663Z,101235.13
2018-09-24T05:56:40.436Z,101250.25
2018-09-24T05:59:15.563Z,101247.08
2018-09-24T06:01:50.355Z,101253.17
2018-09-24T06:04:24.988Z,101260.62
2018-09-24T06:06:59.613Z,101286.66
2018-09-24T06:09:34.270Z,101266.61
2018-09-24T06:12:09.143Z,101273.03
2018-09-24T06:14:43.936Z,101284.47
2018-09-24T06:17:18.720Z,101285.27
2018-09-24T06:19:53.314Z,101292.16
2018-09-24T06:22:28.219Z,101279.07
2018-09-24T06:25:02.898Z,101293.19
2018-09-24T06:27:37.730Z,101297.75
2018-09-24T06:30:12.707Z,101304.94
2018-09-24T06:32:47.662Z,101307.87
2018-09-24T06:35:22.438Z,101320.80
2018-09-24T06:37:57.372Z,101324.11
2018-09-24T06:40:32.178Z,101317.27
2018-09-24T06:43:06.996Z,101320.02
2018-09-24T06:45:41.864Z,101315.25
2018-09-24T06:48:16.748Z,101323.27
2018-09-24T06:50:51.567Z,101348.28
2018-09-24T06:53:26.435Z,101337.29
2018-09-24T06:56:01.085Z,101334.56
2018-09-24T06:58:42.298Z,101335.34
2018-09-24T07:01:17.219Z,101345.73
2018-09-24T07:03:52.067Z,101345.76
2018-09-24T07:06:26.753Z,101368.52
2018-09-24T07:09:01.356Z,101356.39
2018-09-24T07:11:36.264Z,101372.23
2018-09-24T07:14:11.073Z,101361.52
2018-09-24T07:16:45.971Z,101374.47
2018-09-24T07:19:20.783Z,101385.20
2018-09-24T07:21:55.625Z,101379.31
2018-09-24T07:24:30.566Z,101394.31
2018-09-24T07:27:05.513Z,101368.55
2018-09-24T07:29:40.300Z,101381.44
2018-09-24T07:32:15.048Z,101399.17
2018-09-24T07:34:50.170Z,101401.50
2018-09-24T07:37:25.103Z,101407.98
2018-09-24T07:39:59.940Z,101415.42
2018-09-24T07:42:34.737Z,101408.83
2018-09-24T07:45:09.600Z,101425.14
2018-09-24T07:47:44.398Z,101433.41
2018-09-24T07:50:19.183Z,101433.43
2018-09-24T07:52:53.979Z,101435.67
2018-09-24T07:55:28.937Z,101429.52
2018-09-24T07:58:03.625Z,101450.61
2018-09-24T08:00:38.248Z,101446.66
2018-09-24T08:03:13.103Z,101445.19
2018-09-24T08:05:47.963Z,101451.78
2018-09-24T08:08:22.828Z,101449.73
2018-09-24T08:10:57.733Z,101456.18
2018-09-24T08:13:32.481Z,101466.78
2018-09-24T08:16:07.283Z,101475.14
2018-09-24T08:18:41.936Z,101481.62
2018-09-24T08:21:16.588Z,101489.02
2018-09-24T08:23:51.510Z,101477.42
2018-09-24T08:26:26.459Z,101478.59
2018-09-24T08:29:01.242Z,101493.03
2018-09-24T08:31:36.047Z,101482.34
2018-09-24T08:34:10.850Z,101496.75
2018-09-24T08:36:45.719Z,101508.58
2018-09-24T08:39:20.515Z,101508.30
2018-09-24T08:41:55.432Z,101506.69
2018-09-24T08:44:30.192Z,101520.81
2018-09-24T08:47:04.791Z,101517.26
2018-09-24T08:49:39.606Z,101529.65
2018-09-24T08:52:14.375Z,101522.26
2018-09-24T08:54:49.306Z,101524.33
2018-09-24T08:57:24.346Z,101533.42
2018-09-24T08:59:59.220Z,101536.25
2018-09-24T09:02:34.029Z,101546.44
2018-09-24T09:05:08.883Z,101547.60
2018-09-24T09:07:43.654Z,101531.65
2018-09-24T09:10:18.482Z,101547.62
2018-09-24T09:12:53.271Z,101550.09
2018-09-24T09:15:28.043Z,101554.59
2018-09-24T09:18:02.657Z,101547.62
2018-09-24T09:20:37.450Z,101553.33
2018-09-24T09:23:12.407Z,101565.73
2018-09-24T09:25:47.254Z,101554.12
2018-09-24T09:28:22.078Z,101559.07
2018-09-24T09:30:56.901Z,101549.38
2018-09-24T09:33:31.742Z,101557.64
2018-09-24T09:36:06.446Z,101570.75
2018-09-24T09:38:41.297Z,101569.46
2018-09-24T09:41:15.993Z,101579.00
2018-09-24T09:43:50.951Z,101574.66
2018-09-24T09:46:25.924Z,101574.72
2018-09-24T09:49:00.679Z,101585.59
2018-09-24T09:51:35.377Z,101587.09
2018-09-24T09:54:10.083Z,101599.80
2018-09-24T09:56:44.902Z,101593.78
2018-09-24T09:59:19.801Z,101600.03
2018-09-24T10:01:54.739Z,101593.77
2018-09-24T10:04:29.651Z,101606.36
2018-09-24T10:07:04.256Z,101601.86
2018-09-24T10:09:39.017Z,101597.13
2018-09-24T10:12:14.059Z,101605.87
2018-09-24T10:14:49.163Z,101594.69
2018-09-24T10:17:23.791Z,101613.57
2018-09-24T10:19:58.447Z,101604.66
2018-09-24T10:22:33.174Z,101602.02
2018-09-24T10:25:08.088Z,101612.06
2018-09-24T10:27:42.706Z,101630.75
2018-09-24T10:30:17.638Z,101612.07
2018-09-24T10:32:52.379Z,101633.98
2018-09-24T10:35:27.459Z,101632.12
2018-09-24T10:38:02.240Z,101625.77
2018-09-24T10:40:37.135Z,101633.00
2018-09-24T10:43:12.739Z,101634.06
2018-09-24T10:45:47.575Z,101646.33
2018-09-24T10:48:22.639Z,101636.09
2018-09-24T10:50:57.626Z,101638.83
2018-09-24T10:53:32.523Z,101639.76
2018-09-24T10:56:07.423Z,101632.31
2018-09-24T10:58:42.118Z,101626.68
2018-09-24T11:01:17.022Z,101635.02
2018-09-24T11:03:51.884Z,101635.01
2018-09-24T11:06:26.751Z,101644.16
2018-09-24T11:09:01.582Z,101645.39
2018-09-24T11:11:36.582Z,101645.80
2018-09-24T11:14:11.516Z,101649.66
2018-09-24T11:16:46.360Z,101624.52
2018-09-24T11:19:21.064Z,101649.67
2018-09-24T11:21:55.974Z,101636.22
2018-09-24T11:24:30.750Z,101635.67
2018-09-24T11:27:05.660Z,101646.71
2018-09-24T11:29:40.604Z,101659.15
2018-09-24T11:32:15.443Z,101646.66
2018-09-24T11:34:50.234Z,101650.66
2018-09-24T11:37:25.067Z,101650.66
2018-09-24T11:39:59.853Z,101675.14
2018-09-24T11:42:42.694Z,101678.53
2018-09-24T11:45:17.464Z,101710.63
2018-09-24T11:47:52.271Z,101689.39
2018-09-24T11:50:27.047Z,101691.95
2018-09-24T11:53:02.198Z,101691.69
2018-09-24T11:55:37.171Z,101695.38
2018-09-24T11:58:12.332Z,101696.30
2018-09-24T12:00:47.127Z,101694.56
2018-09-24T12:03:21.978Z,101706.61
2018-09-24T12:05:56.891Z,101709.54
2018-09-24T12:08:31.768Z,101725.80
2018-09-24T12:11:06.460Z,101728.19
2018-09-24T12:13:41.327Z,101719.34
2018-09-24T12:16:16.274Z,101744.44
2018-09-24T12:18:50.997Z,101736.29
2018-09-24T12:21:25.803Z,101760.34
2018-09-24T12:24:00.610Z,101775.64
2018-09-24T12:26:35.408Z,101788.78
2018-09-24T12:29:10.294Z,101794.76
2018-09-24T12:31:45.168Z,101806.64
2018-09-24T12:34:19.944Z,101801.66
2018-09-24T12:36:54.736Z,101793.84
2018-09-24T12:39:29.411Z,101809.45
2018-09-24T12:42:04.286Z,101815.31
2018-09-24T12:44:38.967Z,101817.16
2018-09-24T12:47:13.900Z,101794.05
2018-09-24T12:49:48.855Z,101776.03
2018-09-24T12:52:23.658Z,101773.19
2018-09-24T12:54:58.489Z,101775.11
2018-09-24T12:57:33.136Z,101776.80
2018-09-24T13:00:07.962Z,101769.78
2018-09-24T13:02:42.823Z,101769.14
2018-09-24T13:05:17.783Z,101768.48
2018-09-24T13:07:52.558Z,101765.59
2018-09-24T13:10:27.769Z,101769.70
2018-09-24T13:13:02.401Z,101766.91
2018-09-24T13:15:37.040Z,101769.84
2018-09-24T13:18:12.133Z,101774.25
2018-09-24T13:20:47.028Z,101775.10
2018-09-24T13:23:21.883Z,101775.71
2018-09-24T13:25:56.867Z,101783.55
2018-09-24T13:28:31.734Z,101785.27
2018-09-24T13:31:06.599Z,101776.72
2018-09-24T13:33:41.469Z,101785.08
2018-09-24T13:36:16.314Z,101785.92
2018-09-24T13:38:51.051Z,101794.94
2018-09-24T13:41:25.907Z,101771.91
2018-09-24T13:44:00.700Z,101773.56
2018-09-24T13:46:35.771Z,101764.38
2018-09-24T13:49:10.535Z,101771.06
2018-09-24T13:51:45.430Z,101780.34
2018-09-24T13:54:20.204Z,101776.06
2018-09-24T13:56:55.055Z,101770.19
2018-09-24T13:59:29.771Z,101769.22
2018-09-24T14:02:04.579Z,101773.52
2018-09-24T14:04:39.366Z,101771.59
2018-09-24T14:07:14.225Z,101772.82
2018-09-24T14:09:48.902Z,101762.74
2018-09-24T14:17:28.970Z,101756.59
2018-09-24T14:20:04.000Z,101741.60
2018-09-24T14:22:38.895Z,101755.80
2018-09-24T14:25:13.600Z,101761.61
2018-09-24T14:27:48.558Z,101761.19
2018-09-24T14:30:23.335Z,101768.20
2018-09-24T14:32:58.387Z,101769.89
2018-09-24T14:35:32.996Z,101768.51
2018-09-24T14:38:07.832Z,101781.68
2018-09-24T14:40:42.558Z,101776.30
2018-09-24T14:43:17.478Z,101771.68
2018-09-24T14:45:52.453Z,101762.20
2018-09-24T14:48:27.116Z,101773.98
2018-09-24T14:51:01.857Z,101759.37
2018-09-24T14:53:36.513Z,101767.73
2018-09-24T14:56:11.425Z,101764.20
2018-09-24T14:58:46.319Z,101767.67
2018-09-24T15:01:21.102Z,101760.20
2018-09-24T15:03:55.777Z,101780.96
2018-09-24T15:06:30.629Z,101796.39
2018-09-24T15:09:05.670Z,101801.70
2018-09-24T15:11:40.657Z,101816.11
2018-09-24T15:14:15.426Z,101803.91
2018-09-24T15:16:50.327Z,101820.25
2018-09-24T15:19:25.459Z,101817.16
2018-09-24T15:22:00.279Z,101806.15
2018-09-24T15:24:35.174Z,101816.28
2018-09-24T15:27:10.009Z,101817.23
2018-09-24T15:29:44.817Z,101821.05
2018-09-24T15:32:19.666Z,101823.18
2018-09-24T15:34:54.400Z,101829.05
2018-09-24T15:37:29.051Z,101831.45
2018-09-24T15:40:03.989Z,101825.00
2018-09-24T15:42:38.655Z,101829.34
2018-09-24T15:45:13.465Z,101829.05
2018-09-24T15:47:48.203Z,101829.84
2018-09-24T15:50:23.033Z,101829.76
2018-09-24T15:52:57.718Z,101826.91
2018-09-24T15:55:32.651Z,101830.98
2018-09-24T15:58:07.494Z,101834.30
2018-09-24T16:00:42.325Z,101835.09
2018-09-24T16:03:17.213Z,101829.34
2018-09-24T16:05:52.380Z,101825.66
2018-09-24T16:08:27.244Z,101824.58
2018-09-24T16:11:02.090Z,101827.52
2018-09-24T16:13:36.895Z,101824.06
2018-09-24T16:16:12.133Z,101837.23
2018-09-24T16:18:46.888Z,101837.78
2018-09-24T16:21:21.944Z,101833.09
2018-09-24T16:23:56.878Z,101843.21
2018-09-24T16:26:31.687Z,101850.30
2018-09-24T16:29:06.539Z,101850.30
2018-09-24T16:31:41.302Z,101856.84
2018-09-24T16:34:15.917Z,101853.52
2018-09-24T16:36:50.951Z,101864.88
2018-09-24T16:39:25.915Z,101864.92
2018-09-24T16:42:00.715Z,101861.42
2018-09-24T16:44:35.399Z,101859.74
2018-09-24T16:47:10.135Z,101869.73
2018-09-24T16:49:45.008Z,101879.15
2018-09-24T16:52:19.850Z,101870.09
2018-09-24T16:54:55.153Z,101876.23
2018-09-24T16:57:30.215Z,101875.83
2018-09-24T17:00:05.020Z,101884.19
2018-09-24T17:02:40.003Z,101889.55
2018-09-24T17:05:14.755Z,101898.80
2018-09-24T17:07:49.551Z,101898.53
2018-09-24T17:10:24.453Z,101896.23
2018-09-24T17:12:59.433Z,101898.79
2018-09-24T17:15:34.320Z,101907.92
2018-09-24T17:18:09.123Z,101908.27
2018-09-24T17:20:44.120Z,101914.69
2018-09-24T17:23:18.846Z,101911.66
2018-09-24T17:25:53.670Z,101922.52
2018-09-24T17:28:28.541Z,101926.07
2018-09-24T17:31:03.332Z,101938.65
2018-09-24T17:33:38.312Z,101929.83
2018-09-24T17:36:13.247Z,101937.71
2018-09-24T17:38:48.169Z,101939.07
2018-09-24T17:41:22.832Z,101947.09
2018-09-24T17:43:57.734Z,101942.58
2018-09-24T17:46:32.668Z,101942.27
2018-09-24T17:49:07.626Z,101947.25
2018-09-24T17:51:42.293Z,101959.13
2018-09-24T17:54:17.159Z,101966.22
2018-09-24T17:56:52.063Z,101963.80
2018-09-24T17:59:26.925Z,101964.49
2018-09-24T18:02:01.990Z,101968.17
2018-09-24T18:04:36.851Z,101977.71
2018-09-24T18:07:11.581Z,101986.01
2018-09-24T18:09:46.443Z,101977.71
2018-09-24T18:12:21.220Z,101981.68
2018-09-24T18:14:56.075Z,101980.50
2018-09-24T18:17:30.748Z,101993.47
2018-09-24T18:20:05.375Z,101996.61
2018-09-24T18:22:40.191Z,101997.92
2018-09-24T18:25:14.977Z,102002.22
2018-09-24T18:27:49.919Z,102011.22
2018-09-24T18:30:24.891Z,102022.00
2018-09-24T18:32:59.581Z,102023.13
2018-09-24T18:35:34.513Z,102029.02
2018-09-24T18:38:09.303Z,102029.54
2018-09-24T18:40:44.243Z,102043.59
2018-09-24T18:43:19.094Z,102045.81
2018-09-24T18:45:53.883Z,102059.99
2018-09-24T18:48:28.726Z,102060.14
2018-09-24T18:51:03.631Z,102062.49
2018-09-24T18:53:38.490Z,102068.30
2018-09-24T18:56:13.684Z,102069.06
2018-09-24T18:58:48.490Z,102072.97
2018-09-24T19:01:23.518Z,102079.61
2018-09-24T19:03:58.289Z,102088.25
2018-09-24T19:06:33.074Z,102092.50
2018-09-24T19:09:07.763Z,102097.30
2018-09-24T19:11:42.839Z,102107.56
2018-09-24T19:14:17.748Z,102099.09
2018-09-24T19:16:52.462Z,102097.86
2018-09-24T19:19:28.154Z,102105.73
2018-09-24T19:22:03.153Z,102109.36
2018-09-24T19:24:38.058Z,102115.28
2018-09-24T19:27:12.904Z,102113.43
2018-09-24T19:29:47.582Z,102114.92
2018-09-24T19:32:22.478Z,102109.52
2018-09-24T19:34:57.327Z,102125.32
2018-09-24T19:37:32.118Z,102123.27
2018-09-24T19:40:06.911Z,102123.73
2018-09-24T19:42:41.794Z,102123.62
2018-09-24T19:45:16.519Z,102133.97
2018-09-24T19:47:51.330Z,102133.86
2018-09-24T19:50:26.127Z,102137.70
2018-09-24T19:53:00.890Z,102135.91
2018-09-24T19:55:35.534Z,102141.98
2018-09-24T19:58:10.345Z,102140.34
2018-09-24T20:00:45.305Z,102144.92
2018-09-24T20:03:20.067Z,102140.54
2018-09-24T20:05:54.734Z,102142.99
2018-09-24T20:08:30.215Z,102151.98
2018-09-24T20:11:05.071Z,102154.44
2018-09-24T20:13:39.857Z,102162.02
2018-09-24T20:16:14.669Z,102160.38
2018-09-24T20:18:50.252Z,102164.05
2018-09-24T20:21:24.998Z,102168.69
2018-09-24T20:24:00.005Z,102172.51
2018-09-24T20:26:34.836Z,102186.06
2018-09-24T20:29:09.690Z,102184.84
2018-09-24T20:31:44.467Z,102179.64
2018-09-24T20:34:19.267Z,102184.61
2018-09-24T20:36:53.928Z,102181.74
2018-09-24T20:39:28.867Z,102190.44
2018-09-24T20:42:03.702Z,102189.13
2018-09-24T20:44:38.620Z,102192.95
2018-09-24T20:47:13.487Z,102196.45
2018-09-24T20:49:48.522Z,102202.86
2018-09-24T20:52:23.304Z,102212.78
2018-09-24T20:54:58.119Z,102206.45
2018-09-24T20:57:32.904Z,102213.77
2018-09-24T21:00:07.893Z,102222.12
2018-09-24T21:02:42.945Z,102223.83
2018-09-24T21:05:17.738Z,102232.34
2018-09-24T21:07:52.498Z,102228.80
2018-09-24T21:10:27.456Z,102232.52
2018-09-24T21:13:02.233Z,102229.36
2018-09-24T21:15:37.127Z,102240.09
2018-09-24T21:18:12.153Z,102243.58
2018-09-24T21:20:47.014Z,102254.64
2018-09-24T21:23:21.819Z,102252.48
2018-09-24T21:25:56.753Z,102252.94
2018-09-24T21:28:31.656Z,102257.31
2018-09-24T21:31:06.570Z,102251.53
2018-09-24T21:33:41.283Z,102264.64
2018-09-24T21:36:16.118Z,102264.79
2018-09-24T21:38:50.774Z,102268.05
2018-09-24T21:41:25.741Z,102276.55
2018-09-24T21:44:00.657Z,102273.55
2018-09-24T21:46:35.497Z,102271.73
2018-09-24T21:49:10.284Z,102288.72
2018-09-24T21:51:45.071Z,102289.05
2018-09-24T21:54:19.738Z,102288.36
2018-09-24T21:56:54.568Z,102287.63
2018-09-24T21:59:29.359Z,102285.64
2018-09-24T22:02:04.190Z,102293.92
2018-09-24T22:04:39.008Z,102297.98
2018-09-24T22:07:13.887Z,102301.26
2018-09-24T22:09:48.716Z,102294.92
2018-09-24T22:12:23.524Z,102295.97
2018-09-24T22:14:58.250Z,102303.59
2018-09-24T22:17:33.047Z,102310.77
2018-09-24T22:20:08.293Z,102308.41
2018-09-24T22:22:43.067Z,102317.25
2018-09-24T22:25:17.867Z,102324.46
2018-09-24T22:27:52.625Z,102334.31
2018-09-24T22:30:27.761Z,102337.80
2018-09-24T22:33:02.450Z,102339.18
2018-09-24T22:35:37.365Z,102336.41
2018-09-24T22:38:12.277Z,102339.81
2018-09-24T22:40:47.016Z,102337.05
2018-09-24T22:43:22.058Z,102341.03
2018-09-24T22:45:56.992Z,102340.45
2018-09-24T22:48:32.027Z,102346.86
2018-09-24T22:51:07.038Z,102353.18
2018-09-24T22:53:41.890Z,102350.09
2018-09-24T22:56:16.599Z,102357.97
2018-09-24T22:58:51.380Z,102353.98
2018-09-24T23:01:26.407Z,102356.94
2018-09-24T23:04:01.188Z,102359.36
2018-09-24T23:06:35.991Z,102363.08
2018-09-24T23:09:12.701Z,102359.41
2018-09-24T23:11:47.814Z,102363.71
2018-09-24T23:14:22.887Z,102363.48
2018-09-24T23:16:57.717Z,102367.29
2018-09-24T23:19:32.537Z,102373.29
2018-09-24T23:22:07.279Z,102372.08
2018-09-24T23:24:42.219Z,102374.50
2018-09-24T23:27:17.164Z,102376.02
2018-09-24T23:29:52.202Z,102367.43
2018-09-24T23:32:27.029Z,102376.91
2018-09-24T23:35:01.791Z,102377.95
2018-09-24T23:37:36.590Z,102378.75
2018-09-24T23:40:11.829Z,102380.45
2018-09-24T23:42:46.642Z,102389.94
2018-09-24T23:45:21.347Z,102395.38
2018-09-24T23:47:56.227Z,102399.99
2018-09-24T23:50:31.023Z,102399.50
2018-09-24T23:53:05.754Z,102405.80
2018-09-24T23:55:40.530Z,102407.33
2018-09-24T23:58:15.319Z,102408.20
